sensor_id;sensor_type;location;lat;lon;timestamp;P1;durP1;ratioP1;P2;durP2;ratioP2
8480;SDS011;4277;51.354;6.740;2022-07-24T00:02:12;6.15;;;4.30;;
8480;SDS011;4277;51.354;6.740;2022-07-24T00:04:38;4.45;;;4.15;;
8480;SDS011;4277;51.354;6.740;2022-07-24T00:07:04;6.85;;;4.10;;
8480;SDS011;4277;51.354;6.740;2022-07-24T00:09:30;5.03;;;4.05;;
8480;SDS011;4277;51.354;6.740;2022-07-24T00:11:56;5.75;;;4.50;;
8480;SDS011;4277;51.354;6.740;2022-07-24T00:14:23;4.90;;;4.30;;
8480;SDS011;4277;51.354;6.740;2022-07-24T00:16:49;6.35;;;4.50;;
8480;SDS011;4277;51.354;6.740;2022-07-24T00:19:15;4.60;;;4.20;;
8480;SDS011;4277;51.354;6.740;2022-07-24T00:21:41;4.90;;;4.25;;
8480;SDS011;4277;51.354;6.740;2022-07-24T00:24:07;4.40;;;4.00;;
8480;SDS011;4277;51.354;6.740;2022-07-24T00:26:33;4.72;;;4.22;;
8480;SDS011;4277;51.354;6.740;2022-07-24T00:29:00;5.32;;;4.20;;
8480;SDS011;4277;51.354;6.740;2022-07-24T00:31:26;4.97;;;4.53;;
8480;SDS011;4277;51.354;6.740;2022-07-24T00:33:52;5.18;;;4.00;;
8480;SDS011;4277;51.354;6.740;2022-07-24T00:36:18;6.03;;;4.65;;
8480;SDS011;4277;51.354;6.740;2022-07-24T00:38:44;4.90;;;4.50;;
8480;SDS011;4277;51.354;6.740;2022-07-24T00:41:10;4.80;;;4.38;;
8480;SDS011;4277;51.354;6.740;2022-07-24T00:43:57;4.75;;;4.32;;
8480;SDS011;4277;51.354;6.740;2022-07-24T00:46:21;4.90;;;4.50;;
8480;SDS011;4277;51.354;6.740;2022-07-24T00:48:47;5.10;;;4.20;;
8480;SDS011;4277;51.354;6.740;2022-07-24T00:51:13;5.68;;;4.53;;
8480;SDS011;4277;51.354;6.740;2022-07-24T00:53:39;6.47;;;4.28;;
8480;SDS011;4277;51.354;6.740;2022-07-24T00:56:05;5.88;;;4.53;;
8480;SDS011;4277;51.354;6.740;2022-07-24T00:58:32;5.05;;;4.55;;
8480;SDS011;4277;51.354;6.740;2022-07-24T01:00:58;4.82;;;4.43;;
8480;SDS011;4277;51.354;6.740;2022-07-24T01:03:23;5.60;;;4.50;;
8480;SDS011;4277;51.354;6.740;2022-07-24T01:05:49;5.25;;;4.50;;
8480;SDS011;4277;51.354;6.740;2022-07-24T01:08:15;6.28;;;4.72;;
8480;SDS011;4277;51.354;6.740;2022-07-24T01:10:41;4.40;;;4.00;;
8480;SDS011;4277;51.354;6.740;2022-07-24T01:13:08;5.10;;;4.60;;
8480;SDS011;4277;51.354;6.740;2022-07-24T01:15:34;4.90;;;4.35;;
8480;SDS011;4277;51.354;6.740;2022-07-24T01:18:01;5.03;;;4.60;;
8480;SDS011;4277;51.354;6.740;2022-07-24T01:20:27;5.85;;;4.50;;
8480;SDS011;4277;51.354;6.740;2022-07-24T01:22:53;5.63;;;4.45;;
8480;SDS011;4277;51.354;6.740;2022-07-24T01:25:19;5.55;;;4.40;;
8480;SDS011;4277;51.354;6.740;2022-07-24T01:27:45;6.10;;;4.50;;
8480;SDS011;4277;51.354;6.740;2022-07-24T01:30:11;5.68;;;4.72;;
8480;SDS011;4277;51.354;6.740;2022-07-24T01:32:37;5.10;;;4.53;;
8480;SDS011;4277;51.354;6.740;2022-07-24T01:35:04;5.22;;;4.60;;
8480;SDS011;4277;51.354;6.740;2022-07-24T01:37:30;4.80;;;4.40;;
8480;SDS011;4277;51.354;6.740;2022-07-24T01:39:56;5.35;;;4.85;;
8480;SDS011;4277;51.354;6.740;2022-07-24T01:42:22;4.70;;;4.30;;
8480;SDS011;4277;51.354;6.740;2022-07-24T01:44:50;5.30;;;4.80;;
8480;SDS011;4277;51.354;6.740;2022-07-24T01:47:16;7.38;;;4.80;;
8480;SDS011;4277;51.354;6.740;2022-07-24T01:49:42;6.50;;;4.80;;
8480;SDS011;4277;51.354;6.740;2022-07-24T01:52:08;5.32;;;4.82;;
8480;SDS011;4277;51.354;6.740;2022-07-24T01:54:34;7.35;;;5.20;;
8480;SDS011;4277;51.354;6.740;2022-07-24T01:57:00;6.03;;;4.80;;
8480;SDS011;4277;51.354;6.740;2022-07-24T01:59:26;6.00;;;4.90;;
8480;SDS011;4277;51.354;6.740;2022-07-24T02:01:52;6.28;;;5.10;;
8480;SDS011;4277;51.354;6.740;2022-07-24T02:04:18;5.72;;;4.80;;
8480;SDS011;4277;51.354;6.740;2022-07-24T02:06:44;5.90;;;5.38;;
8480;SDS011;4277;51.354;6.740;2022-07-24T02:09:10;5.38;;;4.88;;
8480;SDS011;4277;51.354;6.740;2022-07-24T02:11:36;5.25;;;4.75;;
8480;SDS011;4277;51.354;6.740;2022-07-24T02:14:02;5.50;;;5.00;;
8480;SDS011;4277;51.354;6.740;2022-07-24T02:16:28;5.97;;;5.20;;
8480;SDS011;4277;51.354;6.740;2022-07-24T02:18:54;6.30;;;5.40;;
8480;SDS011;4277;51.354;6.740;2022-07-24T02:21:20;5.78;;;5.18;;
8480;SDS011;4277;51.354;6.740;2022-07-24T02:23:46;5.57;;;5.07;;
8480;SDS011;4277;51.354;6.740;2022-07-24T02:26:12;5.45;;;4.95;;
8480;SDS011;4277;51.354;6.740;2022-07-24T02:28:38;5.75;;;5.22;;
8480;SDS011;4277;51.354;6.740;2022-07-24T02:31:04;6.07;;;5.40;;
8480;SDS011;4277;51.354;6.740;2022-07-24T02:33:30;6.47;;;5.35;;
8480;SDS011;4277;51.354;6.740;2022-07-24T02:35:56;6.55;;;5.35;;
8480;SDS011;4277;51.354;6.740;2022-07-24T02:38:22;6.10;;;5.50;;
8480;SDS011;4277;51.354;6.740;2022-07-24T02:40:47;6.40;;;5.43;;
8480;SDS011;4277;51.354;6.740;2022-07-24T02:43:13;5.40;;;4.90;;
8480;SDS011;4277;51.354;6.740;2022-07-24T02:45:39;5.72;;;5.18;;
8480;SDS011;4277;51.354;6.740;2022-07-24T02:48:06;5.60;;;4.97;;
8480;SDS011;4277;51.354;6.740;2022-07-24T02:50:32;5.40;;;4.90;;
8480;SDS011;4277;51.354;6.740;2022-07-24T02:53:00;6.93;;;5.13;;
8480;SDS011;4277;51.354;6.740;2022-07-24T02:55:26;5.72;;;5.13;;
8480;SDS011;4277;51.354;6.740;2022-07-24T02:57:53;6.30;;;4.90;;
8480;SDS011;4277;51.354;6.740;2022-07-24T03:00:19;5.55;;;5.05;;
8480;SDS011;4277;51.354;6.740;2022-07-24T03:02:45;5.80;;;5.30;;
8480;SDS011;4277;51.354;6.740;2022-07-24T03:05:11;5.28;;;4.88;;
8480;SDS011;4277;51.354;6.740;2022-07-24T03:07:37;7.43;;;5.13;;
8480;SDS011;4277;51.354;6.740;2022-07-24T03:10:04;5.55;;;5.05;;
8480;SDS011;4277;51.354;6.740;2022-07-24T03:12:30;6.47;;;5.18;;
8480;SDS011;4277;51.354;6.740;2022-07-24T03:14:56;6.15;;;5.00;;
8480;SDS011;4277;51.354;6.740;2022-07-24T03:17:22;5.70;;;5.20;;
8480;SDS011;4277;51.354;6.740;2022-07-24T03:19:48;5.43;;;5.00;;
8480;SDS011;4277;51.354;6.740;2022-07-24T03:22:14;5.55;;;5.05;;
8480;SDS011;4277;51.354;6.740;2022-07-24T03:24:40;5.47;;;5.03;;
8480;SDS011;4277;51.354;6.740;2022-07-24T03:27:06;5.38;;;4.93;;
8480;SDS011;4277;51.354;6.740;2022-07-24T03:29:32;6.22;;;5.53;;
8480;SDS011;4277;51.354;6.740;2022-07-24T03:31:57;5.75;;;5.18;;
8480;SDS011;4277;51.354;6.740;2022-07-24T03:34:23;5.93;;;5.43;;
8480;SDS011;4277;51.354;6.740;2022-07-24T03:36:49;5.43;;;4.93;;
8480;SDS011;4277;51.354;6.740;2022-07-24T03:39:15;5.40;;;4.95;;
8480;SDS011;4277;51.354;6.740;2022-07-24T03:41:42;7.10;;;5.15;;
8480;SDS011;4277;51.354;6.740;2022-07-24T03:44:08;5.55;;;5.05;;
8480;SDS011;4277;51.354;6.740;2022-07-24T03:46:34;6.03;;;5.03;;
8480;SDS011;4277;51.354;6.740;2022-07-24T03:49:00;5.70;;;4.50;;
8480;SDS011;4277;51.354;6.740;2022-07-24T03:51:26;5.40;;;4.90;;
8480;SDS011;4277;51.354;6.740;2022-07-24T03:53:52;5.25;;;4.75;;
8480;SDS011;4277;51.354;6.740;2022-07-24T03:56:18;5.63;;;5.05;;
8480;SDS011;4277;51.354;6.740;2022-07-24T03:58:44;5.50;;;4.93;;
8480;SDS011;4277;51.354;6.740;2022-07-24T04:01:10;5.72;;;5.22;;
8480;SDS011;4277;51.354;6.740;2022-07-24T04:03:36;5.75;;;5.05;;
8480;SDS011;4277;51.354;6.740;2022-07-24T04:06:03;6.18;;;5.35;;
8480;SDS011;4277;51.354;6.740;2022-07-24T04:08:29;5.38;;;4.97;;
8480;SDS011;4277;51.354;6.740;2022-07-24T04:10:55;6.53;;;4.80;;
8480;SDS011;4277;51.354;6.740;2022-07-24T04:13:25;6.15;;;5.00;;
8480;SDS011;4277;51.354;6.740;2022-07-24T04:15:51;5.22;;;4.75;;
8480;SDS011;4277;51.354;6.740;2022-07-24T04:18:17;5.55;;;5.03;;
8480;SDS011;4277;51.354;6.740;2022-07-24T04:20:43;5.88;;;5.38;;
8480;SDS011;4277;51.354;6.740;2022-07-24T04:23:09;6.00;;;5.40;;
8480;SDS011;4277;51.354;6.740;2022-07-24T04:25:35;6.20;;;5.55;;
8480;SDS011;4277;51.354;6.740;2022-07-24T04:28:01;6.90;;;5.10;;
8480;SDS011;4277;51.354;6.740;2022-07-24T04:30:27;5.28;;;4.78;;
8480;SDS011;4277;51.354;6.740;2022-07-24T04:32:53;7.00;;;5.05;;
8480;SDS011;4277;51.354;6.740;2022-07-24T04:35:19;6.10;;;5.50;;
8480;SDS011;4277;51.354;6.740;2022-07-24T04:37:45;6.40;;;5.60;;
8480;SDS011;4277;51.354;6.740;2022-07-24T04:40:11;6.90;;;5.30;;
8480;SDS011;4277;51.354;6.740;2022-07-24T04:42:38;6.35;;;5.32;;
8480;SDS011;4277;51.354;6.740;2022-07-24T04:45:04;5.80;;;5.30;;
8480;SDS011;4277;51.354;6.740;2022-07-24T04:47:31;6.10;;;5.50;;
8480;SDS011;4277;51.354;6.740;2022-07-24T04:49:57;5.80;;;5.28;;
8480;SDS011;4277;51.354;6.740;2022-07-24T04:52:23;8.13;;;5.25;;
8480;SDS011;4277;51.354;6.740;2022-07-24T04:54:49;6.00;;;5.20;;
8480;SDS011;4277;51.354;6.740;2022-07-24T04:57:15;6.72;;;5.60;;
8480;SDS011;4277;51.354;6.740;2022-07-24T04:59:41;6.60;;;5.18;;
8480;SDS011;4277;51.354;6.740;2022-07-24T05:02:07;6.25;;;5.28;;
8480;SDS011;4277;51.354;6.740;2022-07-24T05:04:33;5.30;;;4.90;;
8480;SDS011;4277;51.354;6.740;2022-07-24T05:06:59;6.05;;;5.43;;
8480;SDS011;4277;51.354;6.740;2022-07-24T05:09:26;6.13;;;5.00;;
8480;SDS011;4277;51.354;6.740;2022-07-24T05:11:52;7.57;;;5.03;;
8480;SDS011;4277;51.354;6.740;2022-07-24T05:14:17;6.57;;;5.00;;
8480;SDS011;4277;51.354;6.740;2022-07-24T05:16:43;5.80;;;5.22;;
8480;SDS011;4277;51.354;6.740;2022-07-24T05:19:09;5.57;;;5.05;;
8480;SDS011;4277;51.354;6.740;2022-07-24T05:21:35;5.63;;;5.13;;
8480;SDS011;4277;51.354;6.740;2022-07-24T05:24:01;5.90;;;5.38;;
8480;SDS011;4277;51.354;6.740;2022-07-24T05:26:31;5.93;;;5.32;;
8480;SDS011;4277;51.354;6.740;2022-07-24T05:29:00;8.05;;;5.93;;
8480;SDS011;4277;51.354;6.740;2022-07-24T05:31:26;6.43;;;5.72;;
8480;SDS011;4277;51.354;6.740;2022-07-24T05:33:53;8.05;;;5.80;;
8480;SDS011;4277;51.354;6.740;2022-07-24T05:36:19;8.30;;;6.40;;
8480;SDS011;4277;51.354;6.740;2022-07-24T05:38:45;7.05;;;6.40;;
8480;SDS011;4277;51.354;6.740;2022-07-24T05:41:11;7.82;;;6.72;;
8480;SDS011;4277;51.354;6.740;2022-07-24T05:43:37;7.68;;;6.93;;
8480;SDS011;4277;51.354;6.740;2022-07-24T05:46:04;8.18;;;7.47;;
8480;SDS011;4277;51.354;6.740;2022-07-24T05:48:30;8.60;;;7.78;;
8480;SDS011;4277;51.354;6.740;2022-07-24T05:50:56;8.68;;;7.88;;
8480;SDS011;4277;51.354;6.740;2022-07-24T05:53:22;9.18;;;6.82;;
8480;SDS011;4277;51.354;6.740;2022-07-24T05:55:49;7.85;;;7.15;;
8480;SDS011;4277;51.354;6.740;2022-07-24T05:58:15;7.53;;;6.75;;
8480;SDS011;4277;51.354;6.740;2022-07-24T06:00:41;8.30;;;6.80;;
8480;SDS011;4277;51.354;6.740;2022-07-24T06:03:07;10.32;;;7.68;;
8480;SDS011;4277;51.354;6.740;2022-07-24T06:05:33;8.18;;;7.38;;
8480;SDS011;4277;51.354;6.740;2022-07-24T06:07:59;7.45;;;6.80;;
8480;SDS011;4277;51.354;6.740;2022-07-24T06:10:25;9.73;;;7.32;;
8480;SDS011;4277;51.354;6.740;2022-07-24T06:12:51;7.53;;;6.88;;
8480;SDS011;4277;51.354;6.740;2022-07-24T06:15:17;7.38;;;6.68;;
8480;SDS011;4277;51.354;6.740;2022-07-24T06:17:43;8.20;;;6.85;;
8480;SDS011;4277;51.354;6.740;2022-07-24T06:20:10;7.78;;;6.80;;
8480;SDS011;4277;51.354;6.740;2022-07-24T06:22:41;7.25;;;6.10;;
8480;SDS011;4277;51.354;6.740;2022-07-24T06:25:07;7.25;;;6.50;;
8480;SDS011;4277;51.354;6.740;2022-07-24T06:27:33;8.00;;;5.97;;
8480;SDS011;4277;51.354;6.740;2022-07-24T06:29:59;7.50;;;6.30;;
8480;SDS011;4277;51.354;6.740;2022-07-24T06:32:25;11.27;;;5.93;;
8480;SDS011;4277;51.354;6.740;2022-07-24T06:34:51;7.40;;;6.30;;
8480;SDS011;4277;51.354;6.740;2022-07-24T06:37:17;6.60;;;6.03;;
8480;SDS011;4277;51.354;6.740;2022-07-24T06:39:43;6.45;;;5.85;;
8480;SDS011;4277;51.354;6.740;2022-07-24T06:42:09;6.60;;;5.90;;
8480;SDS011;4277;51.354;6.740;2022-07-24T06:44:35;6.40;;;5.80;;
8480;SDS011;4277;51.354;6.740;2022-07-24T06:47:03;8.40;;;6.07;;
8480;SDS011;4277;51.354;6.740;2022-07-24T06:49:29;8.15;;;5.97;;
8480;SDS011;4277;51.354;6.740;2022-07-24T06:51:55;7.22;;;6.50;;
8480;SDS011;4277;51.354;6.740;2022-07-24T06:54:21;9.68;;;6.20;;
8480;SDS011;4277;51.354;6.740;2022-07-24T06:56:46;7.45;;;5.90;;
8480;SDS011;4277;51.354;6.740;2022-07-24T06:59:12;6.43;;;5.75;;
8480;SDS011;4277;51.354;6.740;2022-07-24T07:01:37;6.50;;;5.88;;
8480;SDS011;4277;51.354;6.740;2022-07-24T07:04:03;7.07;;;6.38;;
8480;SDS011;4277;51.354;6.740;2022-07-24T07:06:28;7.20;;;6.53;;
8480;SDS011;4277;51.354;6.740;2022-07-24T07:08:54;7.32;;;6.68;;
8480;SDS011;4277;51.354;6.740;2022-07-24T07:11:20;7.30;;;6.18;;
8480;SDS011;4277;51.354;6.740;2022-07-24T07:13:45;8.10;;;7.35;;
8480;SDS011;4277;51.354;6.740;2022-07-24T07:16:11;7.40;;;6.18;;
8480;SDS011;4277;51.354;6.740;2022-07-24T07:18:36;6.60;;;6.00;;
8480;SDS011;4277;51.354;6.740;2022-07-24T07:21:02;8.40;;;6.82;;
8480;SDS011;4277;51.354;6.740;2022-07-24T07:23:28;7.60;;;6.85;;
8480;SDS011;4277;51.354;6.740;2022-07-24T07:25:54;7.50;;;6.80;;
8480;SDS011;4277;51.354;6.740;2022-07-24T07:28:19;8.02;;;6.60;;
8480;SDS011;4277;51.354;6.740;2022-07-24T07:30:45;8.68;;;7.28;;
8480;SDS011;4277;51.354;6.740;2022-07-24T07:33:11;7.30;;;6.60;;
8480;SDS011;4277;51.354;6.740;2022-07-24T07:35:37;7.20;;;6.50;;
8480;SDS011;4277;51.354;6.740;2022-07-24T07:38:03;7.10;;;6.50;;
8480;SDS011;4277;51.354;6.740;2022-07-24T07:40:29;8.30;;;7.03;;
8480;SDS011;4277;51.354;6.740;2022-07-24T07:42:55;9.00;;;6.95;;
8480;SDS011;4277;51.354;6.740;2022-07-24T07:45:21;7.82;;;5.88;;
8480;SDS011;4277;51.354;6.740;2022-07-24T07:47:46;7.90;;;7.13;;
8480;SDS011;4277;51.354;6.740;2022-07-24T07:50:13;7.93;;;6.82;;
8480;SDS011;4277;51.354;6.740;2022-07-24T07:52:39;7.88;;;6.70;;
8480;SDS011;4277;51.354;6.740;2022-07-24T07:55:05;10.80;;;7.93;;
8480;SDS011;4277;51.354;6.740;2022-07-24T07:57:31;9.10;;;8.07;;
8480;SDS011;4277;51.354;6.740;2022-07-24T07:59:57;14.25;;;7.90;;
8480;SDS011;4277;51.354;6.740;2022-07-24T08:02:22;9.07;;;8.20;;
8480;SDS011;4277;51.354;6.740;2022-07-24T08:04:48;10.35;;;7.75;;
8480;SDS011;4277;51.354;6.740;2022-07-24T08:07:13;8.30;;;7.10;;
8480;SDS011;4277;51.354;6.740;2022-07-24T08:09:39;9.73;;;8.50;;
8480;SDS011;4277;51.354;6.740;2022-07-24T08:12:04;8.70;;;7.80;;
8480;SDS011;4277;51.354;6.740;2022-07-24T08:14:30;10.02;;;7.85;;
8480;SDS011;4277;51.354;6.740;2022-07-24T08:16:56;9.30;;;7.45;;
8480;SDS011;4277;51.354;6.740;2022-07-24T08:19:21;10.38;;;9.07;;
8480;SDS011;4277;51.354;6.740;2022-07-24T08:21:47;9.30;;;8.13;;
8480;SDS011;4277;51.354;6.740;2022-07-24T08:24:12;9.07;;;7.95;;
8480;SDS011;4277;51.354;6.740;2022-07-24T08:26:38;10.38;;;7.45;;
8480;SDS011;4277;51.354;6.740;2022-07-24T08:29:04;10.57;;;8.52;;
8480;SDS011;4277;51.354;6.740;2022-07-24T08:31:30;9.65;;;8.73;;
8480;SDS011;4277;51.354;6.740;2022-07-24T08:33:56;9.13;;;8.23;;
8480;SDS011;4277;51.354;6.740;2022-07-24T08:36:21;10.40;;;8.43;;
8480;SDS011;4277;51.354;6.740;2022-07-24T08:38:47;13.55;;;8.23;;
8480;SDS011;4277;51.354;6.740;2022-07-24T08:41:13;10.10;;;8.20;;
8480;SDS011;4277;51.354;6.740;2022-07-24T08:43:39;7.80;;;7.10;;
8480;SDS011;4277;51.354;6.740;2022-07-24T08:46:05;9.13;;;8.38;;
8480;SDS011;4277;51.354;6.740;2022-07-24T08:48:36;9.30;;;6.97;;
8480;SDS011;4277;51.354;6.740;2022-07-24T08:51:06;7.82;;;6.68;;
8480;SDS011;4277;51.354;6.740;2022-07-24T08:53:33;9.48;;;7.72;;
8480;SDS011;4277;51.354;6.740;2022-07-24T08:55:58;7.82;;;7.03;;
8480;SDS011;4277;51.354;6.740;2022-07-24T08:58:24;11.90;;;8.55;;
8480;SDS011;4277;51.354;6.740;2022-07-24T09:00:49;9.07;;;8.13;;
8480;SDS011;4277;51.354;6.740;2022-07-24T09:03:15;12.35;;;7.85;;
8480;SDS011;4277;51.354;6.740;2022-07-24T09:05:53;10.80;;;7.93;;
8480;SDS011;4277;51.354;6.740;2022-07-24T09:08:19;7.97;;;7.18;;
8480;SDS011;4277;51.354;6.740;2022-07-24T09:10:58;8.40;;;7.32;;
8480;SDS011;4277;51.354;6.740;2022-07-24T09:13:25;9.80;;;7.80;;
8480;SDS011;4277;51.354;6.740;2022-07-24T09:15:54;8.55;;;7.70;;
8480;SDS011;4277;51.354;6.740;2022-07-24T09:18:27;8.85;;;7.95;;
8480;SDS011;4277;51.354;6.740;2022-07-24T09:20:54;7.82;;;7.03;;
8480;SDS011;4277;51.354;6.740;2022-07-24T09:23:21;9.63;;;7.43;;
8480;SDS011;4277;51.354;6.740;2022-07-24T09:25:53;8.52;;;7.75;;
8480;SDS011;4277;51.354;6.740;2022-07-24T09:28:19;9.57;;;7.20;;
8480;SDS011;4277;51.354;6.740;2022-07-24T09:30:45;9.00;;;7.40;;
8480;SDS011;4277;51.354;6.740;2022-07-24T09:35:44;7.57;;;6.50;;
8480;SDS011;4277;51.354;6.740;2022-07-24T09:38:12;9.07;;;7.60;;
8480;SDS011;4277;51.354;6.740;2022-07-24T09:40:43;10.95;;;6.50;;
8480;SDS011;4277;51.354;6.740;2022-07-24T09:48:18;8.70;;;6.68;;
8480;SDS011;4277;51.354;6.740;2022-07-24T09:50:51;7.70;;;7.00;;
8480;SDS011;4277;51.354;6.740;2022-07-24T09:53:21;8.02;;;6.72;;
8480;SDS011;4277;51.354;6.740;2022-07-24T09:56:05;6.65;;;5.63;;
8480;SDS011;4277;51.354;6.740;2022-07-24T09:58:31;6.70;;;6.10;;
8480;SDS011;4277;51.354;6.740;2022-07-24T10:00:59;8.73;;;7.40;;
8480;SDS011;4277;51.354;6.740;2022-07-24T10:03:31;7.18;;;6.53;;
8480;SDS011;4277;51.354;6.740;2022-07-24T10:06:00;7.32;;;6.63;;
8480;SDS011;4277;51.354;6.740;2022-07-24T10:08:27;6.85;;;6.15;;
8480;SDS011;4277;51.354;6.740;2022-07-24T10:10:54;10.07;;;6.53;;
8480;SDS011;4277;51.354;6.740;2022-07-24T10:13:20;9.40;;;6.45;;
8480;SDS011;4277;51.354;6.740;2022-07-24T10:15:50;7.68;;;6.85;;
8480;SDS011;4277;51.354;6.740;2022-07-24T10:21:19;8.55;;;5.85;;
8480;SDS011;4277;51.354;6.740;2022-07-24T10:26:38;8.32;;;6.00;;
8480;SDS011;4277;51.354;6.740;2022-07-24T10:29:11;5.95;;;5.45;;
8480;SDS011;4277;51.354;6.740;2022-07-24T10:31:40;7.70;;;5.72;;
8480;SDS011;4277;51.354;6.740;2022-07-24T10:34:11;8.27;;;5.57;;
8480;SDS011;4277;51.354;6.740;2022-07-24T10:42:23;5.90;;;5.40;;
8480;SDS011;4277;51.354;6.740;2022-07-24T10:45:12;5.65;;;5.03;;
8480;SDS011;4277;51.354;6.740;2022-07-24T10:47:44;5.90;;;5.30;;
8480;SDS011;4277;51.354;6.740;2022-07-24T10:50:11;6.55;;;5.43;;
8480;SDS011;4277;51.354;6.740;2022-07-24T10:52:39;5.57;;;5.07;;
8480;SDS011;4277;51.354;6.740;2022-07-24T10:57:59;8.40;;;5.10;;
8480;SDS011;4277;51.354;6.740;2022-07-24T11:00:31;5.70;;;5.07;;
8480;SDS011;4277;51.354;6.740;2022-07-24T11:02:58;5.60;;;5.10;;
8480;SDS011;4277;51.354;6.740;2022-07-24T11:05:35;6.88;;;5.03;;
8480;SDS011;4277;51.354;6.740;2022-07-24T11:10:44;5.47;;;4.97;;
8480;SDS011;4277;51.354;6.740;2022-07-24T11:18:35;5.80;;;5.22;;
8480;SDS011;4277;51.354;6.740;2022-07-24T11:21:05;6.60;;;5.28;;
8480;SDS011;4277;51.354;6.740;2022-07-24T11:23:32;8.43;;;5.40;;
8480;SDS011;4277;51.354;6.740;2022-07-24T11:29:09;5.95;;;5.10;;
8480;SDS011;4277;51.354;6.740;2022-07-24T11:31:37;6.70;;;5.47;;
8480;SDS011;4277;51.354;6.740;2022-07-24T11:34:04;5.57;;;5.07;;
8480;SDS011;4277;51.354;6.740;2022-07-24T11:36:29;5.65;;;5.00;;
8480;SDS011;4277;51.354;6.740;2022-07-24T11:38:56;6.80;;;5.07;;
8480;SDS011;4277;51.354;6.740;2022-07-24T11:41:22;8.27;;;5.00;;
8480;SDS011;4277;51.354;6.740;2022-07-24T11:43:53;6.20;;;5.03;;
8480;SDS011;4277;51.354;6.740;2022-07-24T11:46:35;5.80;;;4.90;;
8480;SDS011;4277;51.354;6.740;2022-07-24T11:49:04;5.35;;;4.80;;
8480;SDS011;4277;51.354;6.740;2022-07-24T11:51:32;5.50;;;4.90;;
8480;SDS011;4277;51.354;6.740;2022-07-24T11:54:06;7.32;;;4.80;;
8480;SDS011;4277;51.354;6.740;2022-07-24T11:56:32;5.55;;;5.00;;
8480;SDS011;4277;51.354;6.740;2022-07-24T11:58:57;5.32;;;4.82;;
8480;SDS011;4277;51.354;6.740;2022-07-24T12:01:23;5.55;;;4.80;;
8480;SDS011;4277;51.354;6.740;2022-07-24T12:03:49;8.15;;;4.95;;
8480;SDS011;4277;51.354;6.740;2022-07-24T12:06:16;7.07;;;4.90;;
8480;SDS011;4277;51.354;6.740;2022-07-24T12:08:43;5.80;;;4.70;;
8480;SDS011;4277;51.354;6.740;2022-07-24T12:11:09;5.72;;;4.53;;
8480;SDS011;4277;51.354;6.740;2022-07-24T12:13:35;4.85;;;4.45;;
8480;SDS011;4277;51.354;6.740;2022-07-24T12:16:06;5.20;;;4.68;;
8480;SDS011;4277;51.354;6.740;2022-07-24T12:18:32;5.35;;;4.40;;
8480;SDS011;4277;51.354;6.740;2022-07-24T12:20:58;5.63;;;4.30;;
8480;SDS011;4277;51.354;6.740;2022-07-24T12:23:25;4.72;;;4.32;;
8480;SDS011;4277;51.354;6.740;2022-07-24T12:25:51;4.55;;;3.88;;
8480;SDS011;4277;51.354;6.740;2022-07-24T12:28:17;5.18;;;4.32;;
8480;SDS011;4277;51.354;6.740;2022-07-24T12:30:44;4.63;;;4.22;;
8480;SDS011;4277;51.354;6.740;2022-07-24T12:38:29;4.70;;;3.88;;
8480;SDS011;4277;51.354;6.740;2022-07-24T12:43:32;4.78;;;4.28;;
8480;SDS011;4277;51.354;6.740;2022-07-24T12:46:05;4.90;;;4.40;;
8480;SDS011;4277;51.354;6.740;2022-07-24T12:48:32;4.93;;;4.28;;
8480;SDS011;4277;51.354;6.740;2022-07-24T12:51:02;6.25;;;4.57;;
8480;SDS011;4277;51.354;6.740;2022-07-24T12:53:32;4.85;;;4.00;;
8480;SDS011;4277;51.354;6.740;2022-07-24T12:56:20;4.75;;;4.25;;
8480;SDS011;4277;51.354;6.740;2022-07-24T13:01:18;4.93;;;4.28;;
8480;SDS011;4277;51.354;6.740;2022-07-24T13:04:00;7.07;;;4.20;;
8480;SDS011;4277;51.354;6.740;2022-07-24T13:06:30;4.60;;;4.20;;
8480;SDS011;4277;51.354;6.740;2022-07-24T13:09:07;4.35;;;3.95;;
8480;SDS011;4277;51.354;6.740;2022-07-24T13:11:36;5.97;;;3.92;;
8480;SDS011;4277;51.354;6.740;2022-07-24T13:14:02;6.82;;;3.67;;
8480;SDS011;4277;51.354;6.740;2022-07-24T13:16:30;4.65;;;3.90;;
8480;SDS011;4277;51.354;6.740;2022-07-24T13:18:56;4.50;;;4.15;;
8480;SDS011;4277;51.354;6.740;2022-07-24T13:21:23;4.32;;;3.90;;
8480;SDS011;4277;51.354;6.740;2022-07-24T13:23:49;5.13;;;3.97;;
8480;SDS011;4277;51.354;6.740;2022-07-24T13:26:14;4.80;;;4.40;;
8480;SDS011;4277;51.354;6.740;2022-07-24T13:28:40;4.97;;;4.00;;
8480;SDS011;4277;51.354;6.740;2022-07-24T13:31:05;4.38;;;3.97;;
8480;SDS011;4277;51.354;6.740;2022-07-24T13:33:31;4.70;;;4.30;;
8480;SDS011;4277;51.354;6.740;2022-07-24T13:35:57;3.97;;;3.67;;
8480;SDS011;4277;51.354;6.740;2022-07-24T13:38:22;4.28;;;3.90;;
8480;SDS011;4277;51.354;6.740;2022-07-24T13:40:48;6.60;;;4.07;;
8480;SDS011;4277;51.354;6.740;2022-07-24T13:43:13;4.53;;;4.13;;
8480;SDS011;4277;51.354;6.740;2022-07-24T13:45:39;4.30;;;3.90;;
8480;SDS011;4277;51.354;6.740;2022-07-24T13:48:04;4.43;;;3.97;;
8480;SDS011;4277;51.354;6.740;2022-07-24T13:50:30;4.28;;;3.60;;
8480;SDS011;4277;51.354;6.740;2022-07-24T13:52:56;4.10;;;3.80;;
8480;SDS011;4277;51.354;6.740;2022-07-24T13:55:21;4.95;;;4.20;;
8480;SDS011;4277;51.354;6.740;2022-07-24T13:57:47;3.95;;;3.65;;
8480;SDS011;4277;51.354;6.740;2022-07-24T14:00:13;3.92;;;3.60;;
8480;SDS011;4277;51.354;6.740;2022-07-24T14:02:39;4.43;;;3.50;;
8480;SDS011;4277;51.354;6.740;2022-07-24T14:05:04;4.25;;;3.70;;
8480;SDS011;4277;51.354;6.740;2022-07-24T14:07:30;6.47;;;4.07;;
8480;SDS011;4277;51.354;6.740;2022-07-24T14:09:56;3.97;;;3.67;;
8480;SDS011;4277;51.354;6.740;2022-07-24T14:12:21;6.28;;;3.88;;
8480;SDS011;4277;51.354;6.740;2022-07-24T14:14:47;4.55;;;4.07;;
8480;SDS011;4277;51.354;6.740;2022-07-24T14:17:13;4.90;;;3.95;;
8480;SDS011;4277;51.354;6.740;2022-07-24T14:19:39;4.47;;;3.72;;
8480;SDS011;4277;51.354;6.740;2022-07-24T14:22:05;6.32;;;3.63;;
8480;SDS011;4277;51.354;6.740;2022-07-24T14:24:31;4.60;;;4.20;;
8480;SDS011;4277;51.354;6.740;2022-07-24T14:26:57;4.43;;;4.03;;
8480;SDS011;4277;51.354;6.740;2022-07-24T14:29:22;5.25;;;4.00;;
8480;SDS011;4277;51.354;6.740;2022-07-24T14:31:48;4.72;;;4.13;;
8480;SDS011;4277;51.354;6.740;2022-07-24T14:34:14;4.18;;;3.42;;
8480;SDS011;4277;51.354;6.740;2022-07-24T14:36:40;4.63;;;4.03;;
8480;SDS011;4277;51.354;6.740;2022-07-24T14:39:05;3.75;;;3.50;;
8480;SDS011;4277;51.354;6.740;2022-07-24T14:41:31;4.30;;;3.80;;
8480;SDS011;4277;51.354;6.740;2022-07-24T14:43:57;4.80;;;4.10;;
8480;SDS011;4277;51.354;6.740;2022-07-24T14:46:23;5.45;;;3.70;;
8480;SDS011;4277;51.354;6.740;2022-07-24T14:48:48;4.22;;;3.88;;
8480;SDS011;4277;51.354;6.740;2022-07-24T14:51:14;4.43;;;3.80;;
8480;SDS011;4277;51.354;6.740;2022-07-24T14:53:39;4.40;;;4.00;;
8480;SDS011;4277;51.354;6.740;2022-07-24T14:56:05;4.45;;;4.05;;
8480;SDS011;4277;51.354;6.740;2022-07-24T14:58:31;5.03;;;3.70;;
8480;SDS011;4277;51.354;6.740;2022-07-24T15:00:56;4.75;;;4.20;;
8480;SDS011;4277;51.354;6.740;2022-07-24T15:03:22;5.43;;;4.00;;
8480;SDS011;4277;51.354;6.740;2022-07-24T15:05:47;4.40;;;4.00;;
8480;SDS011;4277;51.354;6.740;2022-07-24T15:08:13;7.78;;;3.78;;
8480;SDS011;4277;51.354;6.740;2022-07-24T15:10:38;5.80;;;3.97;;
8480;SDS011;4277;51.354;6.740;2022-07-24T15:13:04;7.10;;;4.10;;
8480;SDS011;4277;51.354;6.740;2022-07-24T15:15:29;4.50;;;4.00;;
8480;SDS011;4277;51.354;6.740;2022-07-24T15:17:55;4.30;;;3.88;;
8480;SDS011;4277;51.354;6.740;2022-07-24T15:20:21;5.40;;;4.10;;
8480;SDS011;4277;51.354;6.740;2022-07-24T15:22:46;4.30;;;3.90;;
8480;SDS011;4277;51.354;6.740;2022-07-24T15:25:12;5.78;;;4.18;;
8480;SDS011;4277;51.354;6.740;2022-07-24T15:27:38;5.65;;;3.95;;
8480;SDS011;4277;51.354;6.740;2022-07-24T15:30:03;4.97;;;4.15;;
8480;SDS011;4277;51.354;6.740;2022-07-24T15:32:29;4.53;;;3.78;;
8480;SDS011;4277;51.354;6.740;2022-07-24T15:34:55;4.28;;;3.88;;
8480;SDS011;4277;51.354;6.740;2022-07-24T15:37:21;4.68;;;4.28;;
8480;SDS011;4277;51.354;6.740;2022-07-24T15:39:46;4.78;;;3.88;;
8480;SDS011;4277;51.354;6.740;2022-07-24T15:42:12;4.57;;;4.18;;
8480;SDS011;4277;51.354;6.740;2022-07-24T15:44:37;4.22;;;3.85;;
8480;SDS011;4277;51.354;6.740;2022-07-24T15:47:03;4.30;;;3.90;;
8480;SDS011;4277;51.354;6.740;2022-07-24T15:49:28;4.70;;;4.30;;
8480;SDS011;4277;51.354;6.740;2022-07-24T15:51:54;5.22;;;4.30;;
8480;SDS011;4277;51.354;6.740;2022-07-24T15:54:19;4.65;;;4.00;;
8480;SDS011;4277;51.354;6.740;2022-07-24T15:56:45;4.40;;;4.00;;